Oldenburg, Mississippi
Current Conditions -  °F | °C
As of 5:15 PM on Friday 31 Oct 2014 (Local Time) from KHEZ Reporting Station
Clear Clear  
Wind Chill: 64°   Ceiling: Unl
Heat Index: 64°   Visibility: 10mi
Dew Point: 45°   Wind: 13mph
Humidity: 49%   Direction: 340°NNW
Pressure: 30.13"   Gusts: 22mph
Location:  31.4774°N, 91.0619°W
Report Text: KHEZ 312215Z AUTO 34011G19KT 10SM CLR 18/07 A3013 RMK AO1
Loading
Personal Weather Stations






























Interactive Weather Map
Tropical Storm Tracking
New forecast layout! Learn more

10-Day Weather Forecast

Advertisements
Track Severe Weather on mobile